sensor_id;sensor_type;location;lat;lon;timestamp;pressure;altitude;pressure_sealevel;temperature;humidity
72210;BME280;60113;48.762;12.302;2023-03-26T00:01:32;96697.84;;;5.81;77.55
72210;BME280;60113;48.762;12.302;2023-03-26T00:04:00;96691.97;;;5.77;77.19
72210;BME280;60113;48.762;12.302;2023-03-26T00:06:30;96693.88;;;5.75;78.12
72210;BME280;60113;48.762;12.302;2023-03-26T00:08:59;96692.81;;;5.78;77.17
72210;BME280;60113;48.762;12.302;2023-03-26T00:11:25;96681.44;;;5.79;78.93
72210;BME280;60113;48.762;12.302;2023-03-26T00:13:51;96675.63;;;5.75;77.18
72210;BME280;60113;48.762;12.302;2023-03-26T00:16:21;96686.25;;;5.72;77.31
72210;BME280;60113;48.762;12.302;2023-03-26T00:18:47;96688.31;;;5.67;76.90
72210;BME280;60113;48.762;12.302;2023-03-26T00:21:14;96687.16;;;5.58;78.03
72210;BME280;60113;48.762;12.302;2023-03-26T00:23:40;96693.66;;;5.50;78.37
72210;BME280;60113;48.762;12.302;2023-03-26T00:26:06;96696.66;;;5.44;78.54
72210;BME280;60113;48.762;12.302;2023-03-26T00:28:35;96704.88;;;5.38;80.00
72210;BME280;60113;48.762;12.302;2023-03-26T00:31:02;96704.34;;;5.33;79.22
72210;BME280;60113;48.762;12.302;2023-03-26T00:33:28;96708.00;;;5.30;79.96
72210;BME280;60113;48.762;12.302;2023-03-26T00:35:54;96695.78;;;5.31;80.18
72210;BME280;60113;48.762;12.302;2023-03-26T00:38:22;96708.31;;;5.38;79.38
72210;BME280;60113;48.762;12.302;2023-03-26T00:40:48;96693.84;;;5.47;79.33
72210;BME280;60113;48.762;12.302;2023-03-26T00:43:15;96692.34;;;5.58;79.38
72210;BME280;60113;48.762;12.302;2023-03-26T00:45:47;96696.44;;;5.62;79.75
72210;BME280;60113;48.762;12.302;2023-03-26T00:48:13;96688.41;;;5.65;80.40
72210;BME280;60113;48.762;12.302;2023-03-26T00:50:39;96683.94;;;5.67;80.38
72210;BME280;60113;48.762;12.302;2023-03-26T00:53:05;96686.44;;;5.69;79.26
72210;BME280;60113;48.762;12.302;2023-03-26T00:55:31;96687.16;;;5.71;79.74
72210;BME280;60113;48.762;12.302;2023-03-26T00:57:56;96689.78;;;5.71;79.90
72210;BME280;60113;48.762;12.302;2023-03-26T01:00:31;96692.28;;;5.72;79.92
72210;BME280;60113;48.762;12.302;2023-03-26T01:02:59;96692.28;;;5.72;80.06
72210;BME280;60113;48.762;12.302;2023-03-26T01:05:39;96694.16;;;5.70;80.07
72210;BME280;60113;48.762;12.302;2023-03-26T01:10:38;96700.00;;;5.74;80.18
72210;BME280;60113;48.762;12.302;2023-03-26T01:13:05;96687.81;;;5.74;79.69
72210;BME280;60113;48.762;12.302;2023-03-26T01:15:32;96694.59;;;5.77;80.55
72210;BME280;60113;48.762;12.302;2023-03-26T01:17:57;96692.81;;;5.78;80.69
72210;BME280;60113;48.762;12.302;2023-03-26T01:20:23;96694.78;;;5.74;80.04
72210;BME280;60113;48.762;12.302;2023-03-26T01:22:51;96693.13;;;5.73;81.04
72210;BME280;60113;48.762;12.302;2023-03-26T01:25:20;96696.03;;;5.68;81.30
72210;BME280;60113;48.762;12.302;2023-03-26T01:27:48;96693.63;;;5.65;81.66
72210;BME280;60113;48.762;12.302;2023-03-26T01:33:17;96695.38;;;5.65;82.29
72210;BME280;60113;48.762;12.302;2023-03-26T01:41:22;96696.53;;;5.60;82.31
72210;BME280;60113;48.762;12.302;2023-03-26T01:43:48;96692.34;;;5.58;81.98
72210;BME280;60113;48.762;12.302;2023-03-26T01:46:15;96680.78;;;5.62;82.11
72210;BME280;60113;48.762;12.302;2023-03-26T01:48:42;96685.16;;;5.61;81.50
72210;BME280;60113;48.762;12.302;2023-03-26T01:51:09;96684.34;;;5.61;82.31
72210;BME280;60113;48.762;12.302;2023-03-26T01:53:36;96681.84;;;5.59;82.99
72210;BME280;60113;48.762;12.302;2023-03-26T02:01:29;96683.50;;;5.60;82.77
72210;BME280;60113;48.762;12.302;2023-03-26T02:04:08;96677.44;;;5.60;80.99
72210;BME280;60113;48.762;12.302;2023-03-26T02:06:37;96675.78;;;5.59;82.50
72210;BME280;60113;48.762;12.302;2023-03-26T02:09:07;96670.56;;;5.59;81.58
72210;BME280;60113;48.762;12.302;2023-03-26T02:11:34;96664.50;;;5.58;81.25
72210;BME280;60113;48.762;12.302;2023-03-26T02:14:02;96656.59;;;5.60;83.04
72210;BME280;60113;48.762;12.302;2023-03-26T02:16:27;96656.69;;;5.58;81.89
72210;BME280;60113;48.762;12.302;2023-03-26T02:18:53;96656.69;;;5.58;82.08
72210;BME280;60113;48.762;12.302;2023-03-26T02:21:21;96652.41;;;5.57;81.98
72210;BME280;60113;48.762;12.302;2023-03-26T02:23:51;96655.22;;;5.54;82.88
72210;BME280;60113;48.762;12.302;2023-03-26T02:26:22;96656.38;;;5.50;82.63
72210;BME280;60113;48.762;12.302;2023-03-26T02:28:47;96657.38;;;5.47;82.20
72210;BME280;60113;48.762;12.302;2023-03-26T02:31:13;96653.31;;;5.43;82.75
72210;BME280;60113;48.762;12.302;2023-03-26T02:33:40;96656.13;;;5.40;82.91
72210;BME280;60113;48.762;12.302;2023-03-26T02:36:05;96659.97;;;5.34;82.67
72210;BME280;60113;48.762;12.302;2023-03-26T02:38:32;96645.47;;;5.30;82.36
72210;BME280;60113;48.762;12.302;2023-03-26T02:40:59;96652.53;;;5.28;83.63
72210;BME280;60113;48.762;12.302;2023-03-26T02:43:25;96652.72;;;5.25;83.78
72210;BME280;60113;48.762;12.302;2023-03-26T02:45:50;96645.13;;;5.22;83.83
72210;BME280;60113;48.762;12.302;2023-03-26T02:48:16;96646.16;;;5.19;83.02
72210;BME280;60113;48.762;12.302;2023-03-26T02:50:41;96641.84;;;5.18;82.87
72210;BME280;60113;48.762;12.302;2023-03-26T02:53:07;96634.03;;;5.18;83.36
72210;BME280;60113;48.762;12.302;2023-03-26T02:55:32;96637.50;;;5.19;82.85
72210;BME280;60113;48.762;12.302;2023-03-26T02:57:58;96633.31;;;5.16;83.11
72210;BME280;60113;48.762;12.302;2023-03-26T03:00:24;96635.00;;;5.17;82.78
72210;BME280;60113;48.762;12.302;2023-03-26T03:02:50;96633.44;;;5.15;82.25
72210;BME280;60113;48.762;12.302;2023-03-26T03:05:17;96621.41;;;5.12;83.20
72210;BME280;60113;48.762;12.302;2023-03-26T03:07:43;96616.41;;;5.09;83.84
72210;BME280;60113;48.762;12.302;2023-03-26T03:10:10;96620.16;;;5.05;84.78
72210;BME280;60113;48.762;12.302;2023-03-26T03:12:38;96616.28;;;4.97;82.79
72210;BME280;60113;48.762;12.302;2023-03-26T03:15:04;96620.72;;;4.95;83.34
72210;BME280;60113;48.762;12.302;2023-03-26T03:17:29;96612.38;;;4.90;82.67
72210;BME280;60113;48.762;12.302;2023-03-26T03:19:54;96616.94;;;4.86;82.54
72210;BME280;60113;48.762;12.302;2023-03-26T03:22:20;96613.78;;;4.81;82.10
72210;BME280;60113;48.762;12.302;2023-03-26T03:24:45;96604.50;;;4.77;81.87
72210;BME280;60113;48.762;12.302;2023-03-26T03:27:11;96610.09;;;4.71;82.10
72210;BME280;60113;48.762;12.302;2023-03-26T03:29:37;96604.34;;;4.66;83.36
72210;BME280;60113;48.762;12.302;2023-03-26T03:32:02;96603.91;;;4.59;81.98
72210;BME280;60113;48.762;12.302;2023-03-26T03:34:28;96608.66;;;4.52;83.08
72210;BME280;60113;48.762;12.302;2023-03-26T03:36:53;96609.03;;;4.46;82.73
72210;BME280;60113;48.762;12.302;2023-03-26T03:39:18;96605.03;;;4.40;83.19
72210;BME280;60113;48.762;12.302;2023-03-26T03:41:44;96610.53;;;4.35;83.57
72210;BME280;60113;48.762;12.302;2023-03-26T03:44:09;96609.13;;;4.30;84.59
72210;BME280;60113;48.762;12.302;2023-03-26T03:46:35;96601.59;;;4.25;83.27
72210;BME280;60113;48.762;12.302;2023-03-26T03:49:01;96601.88;;;4.20;84.32
72210;BME280;60113;48.762;12.302;2023-03-26T03:51:26;96603.84;;;4.17;85.68
72210;BME280;60113;48.762;12.302;2023-03-26T03:53:52;96594.63;;;4.11;86.30
72210;BME280;60113;48.762;12.302;2023-03-26T03:56:20;96602.69;;;4.06;85.78
72210;BME280;60113;48.762;12.302;2023-03-26T03:58:48;96592.69;;;4.00;84.92
72210;BME280;60113;48.762;12.302;2023-03-26T04:01:13;96593.97;;;3.93;85.72
72210;BME280;60113;48.762;12.302;2023-03-26T04:03:41;96590.06;;;3.85;85.20
72210;BME280;60113;48.762;12.302;2023-03-26T04:06:10;96587.09;;;3.77;86.06
72210;BME280;60113;48.762;12.302;2023-03-26T04:08:36;96573.91;;;3.66;86.65
72210;BME280;60113;48.762;12.302;2023-03-26T04:11:01;96570.91;;;3.57;85.48
72210;BME280;60113;48.762;12.302;2023-03-26T04:13:27;96568.69;;;3.51;86.50
72210;BME280;60113;48.762;12.302;2023-03-26T04:15:52;96562.09;;;3.45;85.61
72210;BME280;60113;48.762;12.302;2023-03-26T04:18:18;96563.06;;;3.43;87.36
72210;BME280;60113;48.762;12.302;2023-03-26T04:20:44;96572.75;;;3.41;86.76
72210;BME280;60113;48.762;12.302;2023-03-26T04:23:14;96577.09;;;3.40;84.87
72210;BME280;60113;48.762;12.302;2023-03-26T04:25:41;96575.06;;;3.45;88.13
72210;BME280;60113;48.762;12.302;2023-03-26T04:28:08;96567.28;;;3.45;86.30
72210;BME280;60113;48.762;12.302;2023-03-26T04:30:38;96565.50;;;3.46;87.47
72210;BME280;60113;48.762;12.302;2023-03-26T04:33:07;96564.00;;;3.42;88.49
72210;BME280;60113;48.762;12.302;2023-03-26T04:35:34;96561.59;;;3.38;85.78
72210;BME280;60113;48.762;12.302;2023-03-26T04:38:00;96563.34;;;3.38;88.06
72210;BME280;60113;48.762;12.302;2023-03-26T04:40:30;96565.47;;;3.31;87.48
72210;BME280;60113;48.762;12.302;2023-03-26T04:43:01;96562.97;;;3.30;87.97
72210;BME280;60113;48.762;12.302;2023-03-26T04:45:27;96558.81;;;3.27;87.39
72210;BME280;60113;48.762;12.302;2023-03-26T04:47:57;96554.69;;;3.23;88.24
72210;BME280;60113;48.762;12.302;2023-03-26T04:50:22;96549.66;;;3.20;89.24
72210;BME280;60113;48.762;12.302;2023-03-26T04:52:48;96559.59;;;3.13;88.13
72210;BME280;60113;48.762;12.302;2023-03-26T04:55:48;96561.78;;;3.05;89.00
72210;BME280;60113;48.762;12.302;2023-03-26T04:58:06;96568.34;;;2.96;89.05
72210;BME280;60113;48.762;12.302;2023-03-26T05:00:31;96574.75;;;2.88;89.06
72210;BME280;60113;48.762;12.302;2023-03-26T05:02:58;96573.53;;;2.80;88.81
72210;BME280;60113;48.762;12.302;2023-03-26T05:05:23;96583.31;;;2.74;89.82
72210;BME280;60113;48.762;12.302;2023-03-26T05:07:49;96578.22;;;2.73;90.27
72210;BME280;60113;48.762;12.302;2023-03-26T05:10:15;96577.31;;;2.74;90.48
72210;BME280;60113;48.762;12.302;2023-03-26T05:12:41;96570.50;;;2.71;90.32
72210;BME280;60113;48.762;12.302;2023-03-26T05:15:07;96567.19;;;2.69;90.09
72210;BME280;60113;48.762;12.302;2023-03-26T05:17:33;96568.09;;;2.68;89.64
72210;BME280;60113;48.762;12.302;2023-03-26T05:20:06;96563.91;;;2.66;89.70
72210;BME280;60113;48.762;12.302;2023-03-26T05:22:32;96557.72;;;2.68;91.34
72210;BME280;60113;48.762;12.302;2023-03-26T05:24:57;96558.56;;;2.69;89.82
72210;BME280;60113;48.762;12.302;2023-03-26T05:27:22;96559.97;;;2.74;90.42
72210;BME280;60113;48.762;12.302;2023-03-26T05:29:48;96559.72;;;2.79;90.66
72210;BME280;60113;48.762;12.302;2023-03-26T05:32:13;96554.19;;;2.85;88.80
72210;BME280;60113;48.762;12.302;2023-03-26T05:34:39;96552.09;;;2.92;89.79
72210;BME280;60113;48.762;12.302;2023-03-26T05:37:05;96553.50;;;2.98;88.10
72210;BME280;60113;48.762;12.302;2023-03-26T05:39:32;96550.53;;;3.04;88.17
72210;BME280;60113;48.762;12.302;2023-03-26T05:41:57;96540.06;;;3.06;89.31
72210;BME280;60113;48.762;12.302;2023-03-26T05:44:23;96540.75;;;3.09;89.73
72210;BME280;60113;48.762;12.302;2023-03-26T05:46:48;96544.81;;;3.13;89.70
72210;BME280;60113;48.762;12.302;2023-03-26T05:49:14;96543.47;;;3.22;91.06
72210;BME280;60113;48.762;12.302;2023-03-26T05:51:39;96534.41;;;3.30;90.00
72210;BME280;60113;48.762;12.302;2023-03-26T05:54:04;96533.13;;;3.37;89.11
72210;BME280;60113;48.762;12.302;2023-03-26T05:56:30;96524.69;;;3.48;88.83
72210;BME280;60113;48.762;12.302;2023-03-26T05:58:55;96516.44;;;3.56;89.26
72210;BME280;60113;48.762;12.302;2023-03-26T06:01:21;96523.88;;;3.62;88.30
72210;BME280;60113;48.762;12.302;2023-03-26T06:03:47;96523.41;;;3.70;88.07
72210;BME280;60113;48.762;12.302;2023-03-26T06:06:14;96514.41;;;3.75;87.15
72210;BME280;60113;48.762;12.302;2023-03-26T06:08:47;96503.56;;;3.83;86.74
72210;BME280;60113;48.762;12.302;2023-03-26T06:11:16;96485.63;;;3.93;87.29
72210;BME280;60113;48.762;12.302;2023-03-26T06:13:42;96498.78;;;4.05;85.55
72210;BME280;60113;48.762;12.302;2023-03-26T06:16:08;96498.88;;;4.18;86.86
72210;BME280;60113;48.762;12.302;2023-03-26T06:18:34;96499.69;;;4.33;87.16
72210;BME280;60113;48.762;12.302;2023-03-26T06:21:00;96492.88;;;4.45;86.30
72210;BME280;60113;48.762;12.302;2023-03-26T06:23:25;96491.38;;;4.55;85.77
72210;BME280;60113;48.762;12.302;2023-03-26T06:25:51;96492.53;;;4.64;85.23
72210;BME280;60113;48.762;12.302;2023-03-26T06:28:16;96480.06;;;4.69;84.47
72210;BME280;60113;48.762;12.302;2023-03-26T06:30:42;96466.75;;;4.74;84.57
72210;BME280;60113;48.762;12.302;2023-03-26T06:33:07;96465.72;;;4.77;84.20
72210;BME280;60113;48.762;12.302;2023-03-26T06:35:33;96469.06;;;4.79;83.92
72210;BME280;60113;48.762;12.302;2023-03-26T06:37:58;96468.13;;;4.80;84.79
72210;BME280;60113;48.762;12.302;2023-03-26T06:40:26;96463.66;;;4.82;85.05
72210;BME280;60113;48.762;12.302;2023-03-26T06:42:51;96466.16;;;4.83;85.14
72210;BME280;60113;48.762;12.302;2023-03-26T06:45:17;96454.81;;;4.84;84.98
72210;BME280;60113;48.762;12.302;2023-03-26T06:47:42;96445.13;;;4.86;85.00
72210;BME280;60113;48.762;12.302;2023-03-26T06:50:08;96443.25;;;4.88;85.15
72210;BME280;60113;48.762;12.302;2023-03-26T06:52:34;96433.47;;;4.92;84.29
72210;BME280;60113;48.762;12.302;2023-03-26T06:54:59;96437.44;;;4.98;83.84
72210;BME280;60113;48.762;12.302;2023-03-26T06:57:25;96425.88;;;5.02;83.31
72210;BME280;60113;48.762;12.302;2023-03-26T06:59:50;96441.00;;;5.10;nan
72210;BME280;60113;48.762;12.302;2023-03-26T07:02:15;96437.25;;;5.14;83.56
72210;BME280;60113;48.762;12.302;2023-03-26T07:04:41;96434.34;;;5.19;83.60
72210;BME280;60113;48.762;12.302;2023-03-26T07:07:06;96439.13;;;5.25;84.08
72210;BME280;60113;48.762;12.302;2023-03-26T07:09:32;96434.56;;;5.29;83.66
72210;BME280;60113;48.762;12.302;2023-03-26T07:11:57;96427.25;;;5.34;83.25
72210;BME280;60113;48.762;12.302;2023-03-26T07:14:23;96422.66;;;5.37;82.92
72210;BME280;60113;48.762;12.302;2023-03-26T07:16:56;96430.16;;;5.42;82.95
72210;BME280;60113;48.762;12.302;2023-03-26T07:19:21;96434.97;;;5.48;81.38
72210;BME280;60113;48.762;12.302;2023-03-26T07:21:46;96420.88;;;5.51;82.03
72210;BME280;60113;48.762;12.302;2023-03-26T07:24:14;96411.91;;;5.55;82.33
72210;BME280;60113;48.762;12.302;2023-03-26T07:29:26;96413.88;;;5.65;83.13
72210;BME280;60113;48.762;12.302;2023-03-26T07:32:01;96401.47;;;5.68;82.72
72210;BME280;60113;48.762;12.302;2023-03-26T07:34:49;96394.28;;;5.72;82.94
72210;BME280;60113;48.762;12.302;2023-03-26T07:47:28;96395.16;;;5.97;82.24
72210;BME280;60113;48.762;12.302;2023-03-26T07:49:55;96372.81;;;6.06;82.09
72210;BME280;60113;48.762;12.302;2023-03-26T07:52:22;96378.28;;;6.14;81.69
72210;BME280;60113;48.762;12.302;2023-03-26T07:54:47;96372.41;;;6.23;81.31
72210;BME280;60113;48.762;12.302;2023-03-26T07:59:59;96363.34;;;6.41;80.95
72210;BME280;60113;48.762;12.302;2023-03-26T08:05:17;96361.53;;;6.54;80.91
72210;BME280;60113;48.762;12.302;2023-03-26T08:10:20;96346.72;;;6.66;80.57
72210;BME280;60113;48.762;12.302;2023-03-26T08:15:45;96339.47;;;6.70;80.44
72210;BME280;60113;48.762;12.302;2023-03-26T08:20:49;96324.66;;;6.70;80.54
72210;BME280;60113;48.762;12.302;2023-03-26T08:26:00;96325.25;;;6.74;79.56
72210;BME280;60113;48.762;12.302;2023-03-26T08:30:55;96308.06;;;6.83;79.09
72210;BME280;60113;48.762;12.302;2023-03-26T08:33:21;96313.91;;;6.86;80.46
72210;BME280;60113;48.762;12.302;2023-03-26T08:35:49;96311.06;;;6.90;79.41
72210;BME280;60113;48.762;12.302;2023-03-26T08:38:16;96307.25;;;6.94;79.72
72210;BME280;60113;48.762;12.302;2023-03-26T08:43:18;96298.81;;;7.02;79.57
72210;BME280;60113;48.762;12.302;2023-03-26T08:56:07;96279.09;;;7.09;80.15
72210;BME280;60113;48.762;12.302;2023-03-26T08:58:41;96275.69;;;7.08;80.83
72210;BME280;60113;48.762;12.302;2023-03-26T09:03:45;96271.03;;;7.00;79.88
72210;BME280;60113;48.762;12.302;2023-03-26T09:06:26;96266.06;;;6.97;80.01
72210;BME280;60113;48.762;12.302;2023-03-26T09:14:17;96263.44;;;6.97;83.26
72210;BME280;60113;48.762;12.302;2023-03-26T09:38:27;96204.31;;;7.08;81.75
72210;BME280;60113;48.762;12.302;2023-03-26T09:40:35;96204.44;;;7.06;80.62
72210;BME280;60113;48.762;12.302;2023-03-26T09:43:09;96189.72;;;7.05;81.56
72210;BME280;60113;48.762;12.302;2023-03-26T09:45:42;96189.72;;;7.05;82.18
72210;BME280;60113;48.762;12.302;2023-03-26T10:09:55;96180.06;;;7.06;83.21
72210;BME280;60113;48.762;12.302;2023-03-26T10:15:12;96166.09;;;6.95;83.50
72210;BME280;60113;48.762;12.302;2023-03-26T10:24:05;96168.03;;;6.59;81.50
72210;BME280;60113;48.762;12.302;2023-03-26T10:31:38;96168.56;;;6.28;85.27
72210;BME280;60113;48.762;12.302;2023-03-26T10:57:09;96171.19;;;5.81;88.66
72210;BME280;60113;48.762;12.302;2023-03-26T10:59:40;96183.38;;;5.80;88.41
72210;BME280;60113;48.762;12.302;2023-03-26T11:02:18;96175.66;;;5.79;87.89
72210;BME280;60113;48.762;12.302;2023-03-26T11:04:49;96173.06;;;5.79;87.67
72210;BME280;60113;48.762;12.302;2023-03-26T11:17:42;96144.78;;;5.85;87.81
72210;BME280;60113;48.762;12.302;2023-03-26T11:28:04;96146.94;;;6.03;88.53
72210;BME280;60113;48.762;12.302;2023-03-26T11:33:06;96132.63;;;6.20;88.66
72210;BME280;60113;48.762;12.302;2023-03-26T11:35:35;96137.16;;;6.30;87.97
72210;BME280;60113;48.762;12.302;2023-03-26T11:38:03;96143.22;;;6.30;85.47
72210;BME280;60113;48.762;12.302;2023-03-26T11:40:34;96144.50;;;6.36;87.41
72210;BME280;60113;48.762;12.302;2023-03-26T11:43:02;96144.50;;;6.36;84.99
72210;BME280;60113;48.762;12.302;2023-03-26T11:45:31;96139.91;;;6.40;84.81
72210;BME280;60113;48.762;12.302;2023-03-26T11:50:28;96135.03;;;6.35;86.09
72210;BME280;60113;48.762;12.302;2023-03-26T11:52:57;96149.03;;;6.34;85.77
72210;BME280;60113;48.762;12.302;2023-03-26T11:55:23;96149.72;;;6.36;86.70
72210;BME280;60113;48.762;12.302;2023-03-26T11:57:51;96142.63;;;6.38;88.82
72210;BME280;60113;48.762;12.302;2023-03-26T12:00:18;96140.97;;;6.37;87.56
72210;BME280;60113;48.762;12.302;2023-03-26T12:02:46;96125.09;;;6.40;86.95
72210;BME280;60113;48.762;12.302;2023-03-26T12:07:41;96107.97;;;6.82;87.68
72210;BME280;60113;48.762;12.302;2023-03-26T12:10:19;96113.09;;;7.16;86.93
72210;BME280;60113;48.762;12.302;2023-03-26T12:12:45;96112.94;;;7.50;87.14
72210;BME280;60113;48.762;12.302;2023-03-26T12:15:18;96111.94;;;7.63;85.88
72210;BME280;60113;48.762;12.302;2023-03-26T12:17:45;96105.41;;;7.69;85.82
72210;BME280;60113;48.762;12.302;2023-03-26T12:22:51;96078.34;;;8.01;87.33
72210;BME280;60113;48.762;12.302;2023-03-26T12:27:56;96069.34;;;8.25;84.97
72210;BME280;60113;48.762;12.302;2023-03-26T12:30:23;96050.94;;;8.36;84.70
72210;BME280;60113;48.762;12.302;2023-03-26T12:32:50;96038.09;;;8.65;84.66
72210;BME280;60113;48.762;12.302;2023-03-26T12:35:21;96026.53;;;8.87;83.87
72210;BME280;60113;48.762;12.302;2023-03-26T12:37:50;96018.69;;;9.07;83.52
72210;BME280;60113;48.762;12.302;2023-03-26T12:42:58;96019.50;;;9.47;81.76
72210;BME280;60113;48.762;12.302;2023-03-26T12:45:44;96024.88;;;9.35;80.30
72210;BME280;60113;48.762;12.302;2023-03-26T12:48:09;96024.31;;;9.52;81.63
72210;BME280;60113;48.762;12.302;2023-03-26T12:55:58;96024.13;;;9.83;79.59
72210;BME280;60113;48.762;12.302;2023-03-26T13:08:55;96025.03;;;9.04;80.31
72210;BME280;60113;48.762;12.302;2023-03-26T13:16:32;96019.38;;;8.89;80.43
72210;BME280;60113;48.762;12.302;2023-03-26T13:19:21;96007.78;;;8.82;81.05
72210;BME280;60113;48.762;12.302;2023-03-26T13:28:08;95996.53;;;8.50;81.86
72210;BME280;60113;48.762;12.302;2023-03-26T13:40:19;95968.41;;;8.42;80.87
72210;BME280;60113;48.762;12.302;2023-03-26T13:43:02;95967.88;;;8.48;81.29
72210;BME280;60113;48.762;12.302;2023-03-26T13:47:56;95965.19;;;8.60;77.58
72210;BME280;60113;48.762;12.302;2023-03-26T13:50:29;95955.81;;;8.57;78.33
72210;BME280;60113;48.762;12.302;2023-03-26T13:53:31;95960.44;;;8.54;77.92
72210;BME280;60113;48.762;12.302;2023-03-26T13:55:52;95950.84;;;8.54;79.28
72210;BME280;60113;48.762;12.302;2023-03-26T13:58:21;95944.63;;;8.55;79.42
72210;BME280;60113;48.762;12.302;2023-03-26T14:03:37;95940.63;;;8.61;80.21
72210;BME280;60113;48.762;12.302;2023-03-26T14:06:05;95945.06;;;8.60;80.10
72210;BME280;60113;48.762;12.302;2023-03-26T14:08:43;95940.38;;;8.64;79.76
72210;BME280;60113;48.762;12.302;2023-03-26T14:11:12;95928.81;;;8.67;80.49
72210;BME280;60113;48.762;12.302;2023-03-26T14:13:56;95928.81;;;8.67;79.89
72210;BME280;60113;48.762;12.302;2023-03-26T14:16:25;95937.75;;;8.64;77.74
72210;BME280;60113;48.762;12.302;2023-03-26T14:34:04;95933.47;;;8.63;78.06
72210;BME280;60113;48.762;12.302;2023-03-26T14:36:47;95931.84;;;8.62;78.09
72210;BME280;60113;48.762;12.302;2023-03-26T14:41:52;95935.41;;;8.61;77.68
72210;BME280;60113;48.762;12.302;2023-03-26T14:44:34;95930.03;;;8.62;78.15
72210;BME280;60113;48.762;12.302;2023-03-26T14:47:03;95925.34;;;8.66;76.82
72210;BME280;60113;48.762;12.302;2023-03-26T14:54:48;95905.22;;;8.77;75.58
72210;BME280;60113;48.762;12.302;2023-03-26T14:59:50;95907.28;;;8.73;72.63
72210;BME280;60113;48.762;12.302;2023-03-26T15:45:50;95908.81;;;8.66;71.74
72210;BME280;60113;48.762;12.302;2023-03-26T15:58:35;95889.06;;;8.42;71.57
72210;BME280;60113;48.762;12.302;2023-03-26T16:03:38;95888.34;;;8.30;70.62
72210;BME280;60113;48.762;12.302;2023-03-26T16:08:53;95883.81;;;8.22;71.71
72210;BME280;60113;48.762;12.302;2023-03-26T16:12:23;95889.31;;;8.19;72.46
72210;BME280;60113;48.762;12.302;2023-03-26T16:16:50;95886.69;;;8.09;70.46
72210;BME280;60113;48.762;12.302;2023-03-26T16:24:16;95894.81;;;8.06;71.89
72210;BME280;60113;48.762;12.302;2023-03-26T16:29:17;95879.25;;;8.14;72.40
72210;BME280;60113;48.762;12.302;2023-03-26T16:32:18;95888.34;;;8.30;71.96
72210;BME280;60113;48.762;12.302;2023-03-26T16:37:48;95891.84;;;8.70;70.66
72210;BME280;60113;48.762;12.302;2023-03-26T16:39:50;95888.50;;;9.07;71.14
72210;BME280;60113;48.762;12.302;2023-03-26T16:42:24;95887.16;;;9.41;68.09
72210;BME280;60113;48.762;12.302;2023-03-26T16:49:54;95861.75;;;9.52;69.16
72210;BME280;60113;48.762;12.302;2023-03-26T16:57:56;95866.16;;;10.25;67.08
72210;BME280;60113;48.762;12.302;2023-03-26T17:16:18;95868.47;;;7.97;73.24
72210;BME280;60113;48.762;12.302;2023-03-26T17:28:40;95867.28;;;7.19;75.64
72210;BME280;60113;48.762;12.302;2023-03-26T17:31:15;95868.03;;;7.10;75.33
72210;BME280;60113;48.762;12.302;2023-03-26T17:33:43;95860.28;;;6.98;76.11
72210;BME280;60113;48.762;12.302;2023-03-26T17:41:10;95870.09;;;6.63;77.05
72210;BME280;60113;48.762;12.302;2023-03-26T17:46:50;95871.22;;;6.49;78.12
72210;BME280;60113;48.762;12.302;2023-03-26T17:51:59;95865.91;;;6.40;79.02
72210;BME280;60113;48.762;12.302;2023-03-26T17:54:18;95864.66;;;6.34;78.07
72210;BME280;60113;48.762;12.302;2023-03-26T17:56:46;95865.94;;;6.28;79.29
72210;BME280;60113;48.762;12.302;2023-03-26T17:59:19;95868.13;;;6.23;79.75
72210;BME280;60113;48.762;12.302;2023-03-26T18:01:53;95860.78;;;6.17;80.34
72210;BME280;60113;48.762;12.302;2023-03-26T18:04:33;95862.22;;;6.09;80.95
72210;BME280;60113;48.762;12.302;2023-03-26T18:17:15;95889.63;;;5.81;83.06
72210;BME280;60113;48.762;12.302;2023-03-26T18:19:48;95886.31;;;5.79;81.57
72210;BME280;60113;48.762;12.302;2023-03-26T18:22:19;95887.41;;;5.76;81.38
72210;BME280;60113;48.762;12.302;2023-03-26T18:24:47;95878.16;;;5.72;81.22
72210;BME280;60113;48.762;12.302;2023-03-26T18:27:13;95882.78;;;5.68;80.55
72210;BME280;60113;48.762;12.302;2023-03-26T18:29:44;95886.34;;;5.67;80.39
72210;BME280;60113;48.762;12.302;2023-03-26T18:34:39;95876.63;;;5.58;80.88
72210;BME280;60113;48.762;12.302;2023-03-26T18:39:38;95871.78;;;5.53;83.35
72210;BME280;60113;48.762;12.302;2023-03-26T18:42:04;95867.50;;;5.52;83.89
72210;BME280;60113;48.762;12.302;2023-03-26T18:44:30;95860.66;;;5.51;83.86
72210;BME280;60113;48.762;12.302;2023-03-26T18:46:57;95855.31;;;5.53;83.12
72210;BME280;60113;48.762;12.302;2023-03-26T18:49:22;95857.91;;;5.53;83.23
72210;BME280;60113;48.762;12.302;2023-03-26T18:51:49;95851.75;;;5.54;81.72
72210;BME280;60113;48.762;12.302;2023-03-26T18:54:17;95853.53;;;5.53;83.13
72210;BME280;60113;48.762;12.302;2023-03-26T18:56:45;95862.06;;;5.55;84.36
72210;BME280;60113;48.762;12.302;2023-03-26T18:59:27;95865.50;;;5.56;84.29
72210;BME280;60113;48.762;12.302;2023-03-26T19:01:55;95862.06;;;5.55;84.47
72210;BME280;60113;48.762;12.302;2023-03-26T19:04:21;95867.38;;;5.54;84.70
72210;BME280;60113;48.762;12.302;2023-03-26T19:06:48;95865.84;;;5.51;81.45
72210;BME280;60113;48.762;12.302;2023-03-26T19:09:17;95871.91;;;5.52;84.03
72210;BME280;60113;48.762;12.302;2023-03-26T19:11:44;95868.56;;;5.49;82.78
72210;BME280;60113;48.762;12.302;2023-03-26T19:14:13;95864.44;;;5.47;82.93
72210;BME280;60113;48.762;12.302;2023-03-26T19:16:39;95857.69;;;5.44;82.31
72210;BME280;60113;48.762;12.302;2023-03-26T19:19:08;95862.88;;;5.44;81.93
72210;BME280;60113;48.762;12.302;2023-03-26T19:21:38;95861.97;;;5.45;84.27
72210;BME280;60113;48.762;12.302;2023-03-26T19:24:05;95857.44;;;5.47;86.06
72210;BME280;60113;48.762;12.302;2023-03-26T19:26:31;95861.00;;;5.46;83.34
72210;BME280;60113;48.762;12.302;2023-03-26T19:28:57;95861.84;;;5.47;83.61
72210;BME280;60113;48.762;12.302;2023-03-26T19:31:33;95868.69;;;5.48;84.04